Time,TemperatureF,DewpointF,PressureIn,WindDirection,WindDirectionDegrees,WindSpeedMPH,WindSpeedGustMPH,Humidity,HourlyPrecipIn,Conditions,Clouds,dailyrainin,SoftwareType,DateUTC
2013-01-18 00:16:00,5.0,-4.0,30.13,SE,132,0.0,0.0,65,0.00,,,0.00,weatherlink.com 1.10,2013-01-18 05:16:00,
2013-01-18 00:31:00,4.8,-5.0,30.13,SSW,207,0.0,1.0,65,0.00,,,0.00,weatherlink.com 1.10,2013-01-18 05:31:00,
2013-01-18 00:46:00,4.7,-4.0,30.15,West,260,0.0,2.0,66,0.00,,,0.00,weatherlink.com 1.10,2013-01-18 05:46:00,
2013-01-18 01:01:00,4.4,-5.0,30.15,SSE,155,0.0,1.0,65,0.00,,,0.00,weatherlink.com 1.10,2013-01-18 06:01:00,
2013-01-18 01:16:00,4.1,-5.0,30.16,SW,225,0.0,2.0,65,0.00,,,0.00,weatherlink.com 1.10,2013-01-18 06:16:00,
2013-01-18 01:31:00,3.7,-6.0,30.15,NNE,12,0.0,1.0,63,0.00,,,0.00,weatherlink.com 1.10,2013-01-18 06:31:00,
2013-01-18 01:46:00,3.2,-8.0,30.15,East,93,0.0,0.0,60,0.00,,,0.00,weatherlink.com 1.10,2013-01-18 06:46:00,
2013-01-18 02:02:00,3.0,-7.0,30.14,WSW,242,0.0,1.0,64,0.00,,,0.00,weatherlink.com 1.10,2013-01-18 07:02:00,
2013-01-18 02:17:00,2.5,-7.0,30.15,WSW,242,0.0,0.0,66,0.00,,,0.00,weatherlink.com 1.10,2013-01-18 07:17:00,
2013-01-18 02:32:00,2.1,-7.0,30.16,WSW,242,0.0,0.0,67,0.00,,,0.00,weatherlink.com 1.10,2013-01-18 07:32:00,
2013-01-18 02:47:00,1.4,-6.0,30.18,WSW,242,0.0,0.0,70,0.00,,,0.00,weatherlink.com 1.10,2013-01-18 07:47:00,
2013-01-18 03:02:00,1.0,-6.0,30.18,East,85,0.0,0.0,71,0.00,,,0.00,weatherlink.com 1.10,2013-01-18 08:02:00,
2013-01-18 03:17:00,0.8,-8.0,30.17,East,84,0.0,0.0,66,0.00,,,0.00,weatherlink.com 1.10,2013-01-18 08:17:00,
2013-01-18 03:32:00,0.3,-9.0,30.17,East,84,0.0,0.0,66,0.00,,,0.00,weatherlink.com 1.10,2013-01-18 08:32:00,
2013-01-18 03:47:00,-0.3,-10.0,30.18,East,84,0.0,0.0,65,0.00,,,0.00,weatherlink.com 1.10,2013-01-18 08:47:00,
2013-01-18 04:02:00,-0.7,-11.0,30.17,East,85,0.0,0.0,62,0.00,,,0.00,weatherlink.com 1.10,2013-01-18 09:02:00,
2013-01-18 04:17:00,-1.4,-11.0,30.19,East,84,0.0,0.0,63,0.00,,,0.00,weatherlink.com 1.10,2013-01-18 09:17:00,
2013-01-18 04:32:00,-2.3,-10.0,30.19,ENE,67,1.0,2.0,68,0.00,,,0.00,weatherlink.com 1.10,2013-01-18 09:32:00,
2013-01-18 04:47:00,-3.0,-11.0,30.20,ENE,67,0.0,1.0,69,0.00,,,0.00,weatherlink.com 1.10,2013-01-18 09:47:00,
2013-01-18 05:02:00,-3.1,-10.0,30.20,ENE,67,0.0,2.0,72,0.00,,,0.00,weatherlink.com 1.10,2013-01-18 10:02:00,
2013-01-18 05:17:00,-3.6,-11.0,30.21,ENE,67,0.0,0.0,71,0.00,,,0.00,weatherlink.com 1.10,2013-01-18 10:17:00,
2013-01-18 05:33:00,-3.6,-11.0,30.23,ENE,67,0.0,0.0,70,0.00,,,0.00,weatherlink.com 1.10,2013-01-18 10:33:00,
2013-01-18 05:48:00,-3.6,-11.0,30.24,ENE,67,0.0,0.0,70,0.00,,,0.00,weatherlink.com 1.10,2013-01-18 10:48:00,
2013-01-18 06:03:00,-4.3,-11.0,30.24,ENE,67,2.0,2.0,71,0.00,,,0.00,weatherlink.com 1.10,2013-01-18 11:03:00,
2013-01-18 06:18:00,-4.1,-11.0,30.24,ENE,67,1.0,2.0,73,0.00,,,0.00,weatherlink.com 1.10,2013-01-18 11:18:00,
2013-01-18 06:33:00,-4.3,-11.0,30.24,ENE,65,0.0,0.0,73,0.00,,,0.00,weatherlink.com 1.10,2013-01-18 11:33:00,
2013-01-18 06:48:00,-4.4,-11.0,30.25,ENE,66,0.0,0.0,72,0.00,,,0.00,weatherlink.com 1.10,2013-01-18 11:48:00,
2013-01-18 07:03:00,-4.8,-11.0,30.27,ENE,66,0.0,0.0,73,0.00,,,0.00,weatherlink.com 1.10,2013-01-18 12:03:00,
2013-01-18 07:18:00,-5.4,-12.0,30.28,ENE,65,0.0,0.0,73,0.00,,,0.00,weatherlink.com 1.10,2013-01-18 12:18:00,
2013-01-18 07:33:00,-5.7,-12.0,30.29,ENE,65,0.0,0.0,75,0.00,,,0.00,weatherlink.com 1.10,2013-01-18 12:33:00,
2013-01-18 07:48:00,-4.9,-11.0,30.30,ENE,66,0.0,0.0,76,0.00,,,0.00,weatherlink.com 1.10,2013-01-18 12:48:00,
2013-01-18 08:03:00,-0.8,-9.0,30.31,ENE,67,0.0,0.0,68,0.00,,,0.00,weatherlink.com 1.10,2013-01-18 13:03:00,
2013-01-18 08:18:00,0.4,-11.0,30.32,SSW,199,1.0,3.0,60,0.00,,,0.00,weatherlink.com 1.10,2013-01-18 13:18:00,
2013-01-18 08:33:00,2.0,-11.0,30.33,SSW,205,1.0,2.0,55,0.00,,,0.00,weatherlink.com 1.10,2013-01-18 13:33:00,
2013-01-18 08:49:00,2.9,-12.0,30.34,SW,218,0.0,3.0,50,0.00,,,0.00,weatherlink.com 1.10,2013-01-18 13:49:00,
2013-01-18 09:04:00,4.1,-13.0,30.34,ESE,111,3.0,4.0,46,0.00,,,0.00,weatherlink.com 1.10,2013-01-18 14:04:00,
2013-01-18 09:19:00,5.8,-12.0,30.34,SE,125,2.0,4.0,43,0.00,,,0.00,weatherlink.com 1.10,2013-01-18 14:19:00,
2013-01-18 09:34:00,6.9,-11.0,30.35,ESE,118,2.0,2.0,43,0.00,,,0.00,weatherlink.com 1.10,2013-01-18 14:34:00,
2013-01-18 09:49:00,6.5,-13.0,30.35,ENE,61,2.0,4.0,41,0.00,,,0.00,weatherlink.com 1.10,2013-01-18 14:49:00,
2013-01-18 10:04:00,7.0,-12.0,30.35,East,79,2.0,3.0,41,0.00,,,0.00,weatherlink.com 1.10,2013-01-18 15:04:00,
2013-01-18 10:19:00,7.9,-12.0,30.36,WNW,300,2.0,3.0,40,0.00,,,0.00,weatherlink.com 1.10,2013-01-18 15:19:00,
2013-01-18 10:34:00,8.2,-11.0,30.36,West,271,1.0,2.0,41,0.00,,,0.00,weatherlink.com 1.10,2013-01-18 15:34:00,
2013-01-18 10:49:00,8.6,-10.0,30.36,SW,226,0.0,3.0,42,0.00,,,0.00,weatherlink.com 1.10,2013-01-18 15:49:00,
2013-01-18 11:04:00,8.4,-9.0,30.35,NE,48,1.0,3.0,44,0.00,,,0.00,weatherlink.com 1.10,2013-01-18 16:04:00,
2013-01-18 11:19:00,8.7,-9.0,30.35,NNE,19,0.0,4.0,45,0.00,,,0.00,weatherlink.com 1.10,2013-01-18 16:19:00,
2013-01-18 11:34:00,7.6,-9.0,30.34,East,89,1.0,5.0,46,0.00,,,0.00,weatherlink.com 1.10,2013-01-18 16:34:00,
2013-01-18 11:49:00,6.8,-9.0,30.35,SE,138,3.0,7.0,48,0.00,,,0.00,weatherlink.com 1.10,2013-01-18 16:49:00,
2013-01-18 12:05:00,7.0,-9.0,30.34,East,96,0.0,3.0,48,0.00,,,0.00,weatherlink.com 1.10,2013-01-18 17:05:00,
2013-01-18 12:20:00,6.8,-9.0,30.34,SE,141,0.0,3.0,48,0.00,,,0.00,weatherlink.com 1.10,2013-01-18 17:20:00,
2013-01-18 12:35:00,6.8,-9.0,30.34,WNW,288,0.0,8.0,49,0.00,,,0.00,weatherlink.com 1.10,2013-01-18 17:35:00,
2013-01-18 12:50:00,7.3,-7.0,30.34,NE,44,3.0,4.0,51,0.00,,,0.00,weatherlink.com 1.10,2013-01-18 17:50:00,
2013-01-18 13:05:00,7.2,-8.0,30.34,WSW,237,0.0,3.0,49,0.00,,,0.00,weatherlink.com 1.10,2013-01-18 18:05:00,
2013-01-18 13:20:00,7.4,-8.0,30.34,NE,49,1.0,3.0,50,0.00,,,0.00,weatherlink.com 1.10,2013-01-18 18:20:00,
2013-01-18 13:35:00,7.9,-7.0,30.34,East,81,0.0,5.0,50,0.00,,,0.00,weatherlink.com 1.10,2013-01-18 18:35:00,
2013-01-18 13:50:00,8.3,-7.0,30.35,WNW,284,0.0,2.0,50,0.00,,,0.00,weatherlink.com 1.10,2013-01-18 18:50:00,
2013-01-18 14:05:00,8.9,-6.0,30.36,NW,319,1.0,4.0,51,0.00,,,0.00,weatherlink.com 1.10,2013-01-18 19:05:00,
2013-01-18 14:20:00,9.3,-6.0,30.36,NE,46,0.0,5.0,51,0.00,,,0.00,weatherlink.com 1.10,2013-01-18 19:20:00,
2013-01-18 14:35:00,9.8,-5.0,30.36,SE,134,1.0,4.0,51,0.00,,,0.00,weatherlink.com 1.10,2013-01-18 19:35:00,
2013-01-18 14:50:00,10.0,-5.0,30.38,NE,49,2.0,2.0,51,0.00,,,0.00,weatherlink.com 1.10,2013-01-18 19:50:00,
2013-01-18 15:05:00,10.2,-4.0,30.38,West,280,0.0,1.0,52,0.00,,,0.00,weatherlink.com 1.10,2013-01-18 20:05:00,
2013-01-18 15:21:00,10.1,-4.0,30.37,SE,132,0.0,3.0,52,0.00,,,0.00,weatherlink.com 1.10,2013-01-18 20:21:00,
2013-01-18 15:36:00,10.0,-3.0,30.37,ENE,74,0.0,2.0,55,0.00,,,0.00,weatherlink.com 1.10,2013-01-18 20:36:00,
2013-01-18 15:51:00,9.6,-3.0,30.38,NE,38,0.0,1.0,58,0.00,,,0.00,weatherlink.com 1.10,2013-01-18 20:51:00,
2013-01-18 16:06:00,9.3,-2.0,30.38,SE,140,1.0,1.0,60,0.00,,,0.00,weatherlink.com 1.10,2013-01-18 21:06:00,
2013-01-18 16:21:00,8.8,-3.0,30.38,NE,54,0.0,1.0,60,0.00,,,0.00,weatherlink.com 1.10,2013-01-18 21:21:00,
2013-01-18 16:36:00,8.1,-3.0,30.39,NE,51,0.0,1.0,60,0.00,,,0.00,weatherlink.com 1.10,2013-01-18 21:36:00,
2013-01-18 16:51:00,7.7,-3.0,30.39,NE,51,0.0,2.0,61,0.00,,,0.00,weatherlink.com 1.10,2013-01-18 21:51:00,
2013-01-18 17:06:00,7.6,-3.0,30.39,East,81,0.0,1.0,63,0.00,,,0.00,weatherlink.com 1.10,2013-01-18 22:06:00,
2013-01-18 17:21:00,7.4,-4.0,30.39,East,81,0.0,1.0,61,0.00,,,0.00,weatherlink.com 1.10,2013-01-18 22:21:00,
2013-01-18 17:36:00,7.2,-4.0,30.40,East,80,0.0,1.0,61,0.00,,,0.00,weatherlink.com 1.10,2013-01-18 22:36:00,
2013-01-18 17:51:00,6.7,-4.0,30.41,East,81,0.0,1.0,62,0.00,,,0.00,weatherlink.com 1.10,2013-01-18 22:51:00,
2013-01-18 18:06:00,5.8,-4.0,30.41,East,81,1.0,1.0,65,0.00,,,0.00,weatherlink.com 1.10,2013-01-18 23:06:00,
2013-01-18 18:21:00,5.5,-3.0,30.41,East,79,1.0,2.0,67,0.00,,,0.00,weatherlink.com 1.10,2013-01-18 23:21:00,
2013-01-18 18:36:00,5.2,-3.0,30.41,ENE,65,0.0,2.0,69,0.00,,,0.00,weatherlink.com 1.10,2013-01-18 23:36:00,
2013-01-18 18:52:00,5.6,-3.0,30.40,NE,49,1.0,2.0,68,0.00,,,0.00,weatherlink.com 1.10,2013-01-18 23:52:00,
2013-01-18 19:07:00,5.7,-3.0,30.40,NE,49,1.0,2.0,67,0.00,,,0.00,weatherlink.com 1.10,2013-01-19 00:07:00,
2013-01-18 19:22:00,6.1,-3.0,30.41,NE,49,0.0,2.0,66,0.00,,,0.00,weatherlink.com 1.10,2013-01-19 00:22:00,
2013-01-18 19:37:00,6.1,-3.0,30.41,NE,49,0.0,1.0,66,0.00,,,0.00,weatherlink.com 1.10,2013-01-19 00:37:00,
2013-01-18 19:52:00,5.9,-4.0,30.41,NE,48,1.0,1.0,65,0.00,,,0.00,weatherlink.com 1.10,2013-01-19 00:52:00,
2013-01-18 20:07:00,5.8,-3.0,30.41,ENE,65,0.0,2.0,67,0.00,,,0.00,weatherlink.com 1.10,2013-01-19 01:07:00,
2013-01-18 20:22:00,6.1,-2.0,30.41,ENE,62,1.0,1.0,68,0.00,,,0.00,weatherlink.com 1.10,2013-01-19 01:22:00,
2013-01-18 20:37:00,6.5,-3.0,30.41,ENE,62,0.0,1.0,66,0.00,,,0.00,weatherlink.com 1.10,2013-01-19 01:37:00,
2013-01-18 20:52:00,6.6,-3.0,30.40,NE,51,0.0,2.0,66,0.00,,,0.00,weatherlink.com 1.10,2013-01-19 01:52:00,
2013-01-18 21:07:00,7.0,-3.0,30.40,NE,47,1.0,2.0,64,0.00,,,0.00,weatherlink.com 1.10,2013-01-19 02:07:00,
2013-01-18 21:22:00,8.1,-3.0,30.39,NNE,16,0.0,1.0,60,0.00,,,0.00,weatherlink.com 1.10,2013-01-19 02:22:00,
2013-01-18 21:37:00,8.9,-2.0,30.39,ENE,65,0.0,4.0,62,0.00,,,0.00,weatherlink.com 1.10,2013-01-19 02:37:00,
2013-01-18 21:52:00,9.3,-1.0,30.39,WNW,290,0.0,2.0,63,0.00,,,0.00,weatherlink.com 1.10,2013-01-19 02:52:00,
2013-01-18 22:07:00,8.9,-1.0,30.38,SE,137,0.0,2.0,65,0.00,,,0.00,weatherlink.com 1.10,2013-01-19 03:07:00,
2013-01-18 22:23:00,9.4,0.0,30.37,SE,137,0.0,3.0,67,0.00,,,0.00,weatherlink.com 1.10,2013-01-19 03:23:00,
2013-01-18 22:38:00,9.6,1.0,30.37,ESE,123,0.0,1.0,68,0.00,,,0.00,weatherlink.com 1.10,2013-01-19 03:38:00,
2013-01-18 22:53:00,9.9,1.0,30.37,SSE,161,0.0,3.0,68,0.00,,,0.00,weatherlink.com 1.10,2013-01-19 03:53:00,
2013-01-18 23:08:00,10.6,3.0,30.36,SE,145,0.0,2.0,70,0.00,,,0.00,weatherlink.com 1.10,2013-01-19 04:08:00,
2013-01-18 23:23:00,11.2,4.0,30.35,South,169,1.0,1.0,71,0.00,,,0.00,weatherlink.com 1.10,2013-01-19 04:23:00,
2013-01-18 23:38:00,12.3,4.0,30.33,South,184,0.0,3.0,70,0.00,,,0.00,weatherlink.com 1.10,2013-01-19 04:38:00,
2013-01-18 23:53:00,12.6,6.0,30.34,SW,230,0.0,1.0,73,0.00,,,0.00,weatherlink.com 1.10,2013-01-19 04:53:00,